Time;durP1;ratioP1;P1;durP2;ratioP2;P2;SDS_P1;SDS_P2;PMS_P1;PMS_P2;Temp;Humidity;BMP_temperature;BMP_pressure;BME280_temperature;BME280_humidity;BME280_pressure;Samples;Min_cycle;Max_cycle;Signal;HPM_P1;HPM_P2
2022/08/01 00:00:01;;;;;;;36.63;34.53;;;;;;;-143.39;100.00;64013.03;5073403;28;20397;-82
2022/08/01 00:02:47;;;;;;;37.35;35.45;;;;;;;-143.39;100.00;64013.03;5076270;28;20127;-82
2022/08/01 00:05:17;;;;;;;35.38;33.35;;;;;;;-143.39;100.00;64013.03;5076204;28;20056;-77
2022/08/01 00:07:53;;;;;;;57.65;54.85;;;;;;;-143.39;100.00;64013.03;5079540;28;20052;-77
2022/08/01 00:10:20;;;;;;;30.42;28.60;;;;;;;-143.39;100.00;64013.03;5073613;28;20036;-83
2022/08/01 00:12:49;;;;;;;30.98;29.17;;;;;;;-143.39;100.00;64013.03;5080802;28;20044;-78
2022/08/01 00:15:22;;;;;;;33.22;31.50;;;;;;;-143.39;100.00;64013.03;5075202;28;20049;-78
2022/08/01 00:17:53;;;;;;;42.08;39.97;;;;;;;-143.39;100.00;64013.03;5075272;28;20040;-82
2022/08/01 00:20:34;;;;;;;37.60;35.42;;;;;;;-143.39;100.00;64013.03;5076258;28;20054;-81
2022/08/01 00:23:13;;;;;;;35.47;33.45;;;;;;;-143.39;100.00;64013.03;5073693;28;20048;-81
2022/08/01 00:25:42;;;;;;;37.92;35.83;;;;;;;-143.39;100.00;64013.03;5072634;28;20056;-81
2022/08/01 00:28:13;;;;;;;39.58;37.60;;;;;;;-143.39;100.00;64013.03;5072109;28;20044;-80
2022/08/01 00:30:41;;;;;;;28.90;27.08;;;;;;;-143.39;100.00;64013.03;5076451;28;20036;-77
2022/08/01 00:33:10;;;;;;;34.67;32.78;;;;;;;-143.39;100.00;64013.03;5074988;28;20044;-82
2022/08/01 00:35:54;;;;;;;35.28;33.28;;;;;;;-143.39;100.00;64013.03;5074185;28;20045;-78
2022/08/01 00:38:34;;;;;;;42.40;40.20;;;;;;;-143.39;100.00;64013.03;5077493;28;20108;-78
2022/08/01 00:41:03;;;;;;;38.80;36.55;;;;;;;-143.39;100.00;64013.03;5072367;28;20056;-77
2022/08/01 00:43:42;;;;;;;39.42;37.42;;;;;;;-143.39;100.00;64013.03;5074562;28;20106;-78
2022/08/01 00:46:11;;;;;;;35.13;33.13;;;;;;;-143.39;100.00;64013.03;5073283;28;20044;-80
2022/08/01 00:48:48;;;;;;;33.67;31.67;;;;;;;-143.39;100.00;64013.03;5074626;28;20049;-78
2022/08/01 00:51:20;;;;;;;42.70;40.47;;;;;;;-143.39;100.00;64013.03;5073756;28;20118;-81
2022/08/01 00:53:52;;;;;;;52.65;50.03;;;;;;;-143.39;100.00;64013.03;5075828;28;20045;-82
2022/08/01 00:56:23;;;;;;;46.83;44.43;;;;;;;-143.39;100.00;64013.03;5069835;28;20049;-77
2022/08/01 00:59:13;;;;;;;;;;;;;;;;;;;;;
2022/08/01 01:01:42;;;;;;;63.58;60.58;;;;;;;-143.39;100.00;64013.03;5077262;28;20044;-78
2022/08/01 01:04:09;;;;;;;48.53;45.90;;;;;;;-143.39;100.00;64013.03;5078471;28;20131;-78
2022/08/01 01:06:59;;;;;;;53.75;51.15;;;;;;;-143.39;100.00;64013.03;5074563;28;20374;-82
2022/08/01 01:09:37;;;;;;;45.25;42.55;;;;;;;-143.39;100.00;64013.03;5076449;28;20076;-81
2022/08/01 01:12:20;;;;;;;37.90;35.63;;;;;;;-143.39;100.00;64013.03;5075477;28;20472;-79
2022/08/01 01:15:04;;;;;;;35.08;33.25;;;;;;;-143.39;100.00;64013.03;5073961;28;20400;-78
2022/08/01 01:17:39;;;;;;;46.00;43.70;;;;;;;-143.39;100.00;64013.03;5076599;28;20068;-78
2022/08/01 01:20:12;;;;;;;38.80;36.78;;;;;;;-143.39;100.00;64013.03;5073571;28;20044;-79
2022/08/01 01:22:54;;;;;;;46.83;44.25;;;;;;;-143.39;100.00;64013.03;5070164;28;20056;-78
2022/08/01 01:25:58;;;;;;;42.85;40.72;;;;;;;-143.39;100.00;64013.03;5073179;28;20051;-81
2022/08/01 01:28:36;;;;;;;41.45;39.03;;;;;;;-143.39;100.00;64013.03;5072426;28;20539;-78
2022/08/01 01:31:16;;;;;;;39.70;37.60;;;;;;;-143.39;100.00;64013.03;5071976;28;20135;-78
2022/08/01 01:33:50;;;;;;;37.58;35.42;;;;;;;-143.39;100.00;64013.03;5068708;28;20056;-82
2022/08/01 01:36:22;;;;;;;52.03;49.53;;;;;;;-143.39;100.00;64013.03;5074420;28;20053;-78
2022/08/01 01:38:59;;;;;;;37.42;35.50;;;;;;;-143.39;100.00;64013.03;5072440;28;20500;-78
2022/08/01 01:41:35;;;;;;;37.67;35.60;;;;;;;-143.39;100.00;64013.03;5071182;28;20475;-78
2022/08/01 01:47:06;;;;;;;37.42;35.33;;;;;;;-143.39;100.00;64013.03;5069298;28;20056;-82
2022/08/01 01:49:35;;;;;;;36.42;34.25;;;;;;;-143.39;100.00;64013.03;5073102;28;20398;-78
2022/08/01 01:52:02;;;;;;;30.73;28.92;;;;;;;-143.39;100.00;64013.03;5075539;28;20432;-80
2022/08/01 01:54:36;;;;;;;36.20;34.20;;;;;;;-143.39;100.00;64013.03;5075126;28;20158;-78
2022/08/01 01:57:07;;;;;;;32.25;30.13;;;;;;;-143.39;100.00;64013.03;5072272;28;20052;-81
2022/08/01 01:59:37;;;;;;;39.08;36.78;;;;;;;-143.39;100.00;64013.03;5070963;28;20048;-81
2022/08/01 02:02:07;;;;;;;54.10;50.63;;;;;;;-143.39;100.00;64013.03;5137588;22;20065;-78
2022/08/01 02:04:37;;;;;;;48.15;45.80;;;;;;;-143.39;100.00;64013.03;5043434;28;20071;-84
2022/08/01 02:07:06;;;;;;;39.53;37.55;;;;;;;-143.39;100.00;64013.03;5042393;28;20103;-81
2022/08/01 02:09:36;;;;;;;47.22;44.60;;;;;;;-143.39;100.00;64013.03;5045345;28;20124;-77
2022/08/01 02:12:04;;;;;;;38.45;36.45;;;;;;;-143.39;100.00;64013.03;5048380;28;20064;-80
2022/08/01 02:14:35;;;;;;;47.70;45.42;;;;;;;-143.39;100.00;64013.03;5045033;28;20436;-80
2022/08/01 02:17:03;;;;;;;41.88;39.67;;;;;;;-143.39;100.00;64013.03;5051329;28;20076;-80
2022/08/01 02:19:33;;;;;;;40.13;37.97;;;;;;;-143.39;100.00;64013.03;5054683;28;20063;-80
2022/08/01 02:22:02;;;;;;;43.53;41.33;;;;;;;-143.39;100.00;64013.03;5048984;28;20455;-78
2022/08/01 02:24:38;;;;;;;41.22;39.13;;;;;;;-143.39;100.00;64013.03;5050537;28;20037;-82
2022/08/01 02:27:10;;;;;;;38.25;36.15;;;;;;;-143.39;100.00;64013.03;5056749;28;20055;-82
2022/08/01 02:29:41;;;;;;;49.20;46.53;;;;;;;-143.39;100.00;64013.03;5050921;28;20041;-82
2022/08/01 02:32:13;;;;;;;35.60;33.15;;;;;;;-143.39;100.00;64013.03;5056873;28;20049;-78
2022/08/01 02:34:44;;;;;;;37.45;35.35;;;;;;;-143.39;100.00;64013.03;5050863;28;20052;-79
2022/08/01 02:37:11;;;;;;;37.38;35.35;;;;;;;-143.39;100.00;64013.03;5046039;28;20058;-77
2022/08/01 02:39:40;;;;;;;47.97;45.67;;;;;;;-143.39;100.00;64013.03;5040918;28;20046;-78
2022/08/01 02:42:11;;;;;;;42.55;40.45;;;;;;;-143.39;100.00;64013.03;5047025;28;20138;-80
2022/08/01 02:44:42;;;;;;;41.25;39.15;;;;;;;-143.39;100.00;64013.03;5040470;28;20046;-81
2022/08/01 02:47:10;;;;;;;48.63;46.13;;;;;;;-143.39;100.00;64013.03;5041650;28;20210;-79
2022/08/01 02:49:40;;;;;;;40.63;38.42;;;;;;;-143.39;100.00;64013.03;5044185;28;20481;-81
2022/08/01 02:52:13;;;;;;;58.92;56.22;;;;;;;-143.39;100.00;64013.03;5045862;28;20484;-81
2022/08/01 02:54:41;;;;;;;49.90;47.45;;;;;;;-143.39;100.00;64013.03;5038994;28;20477;-79
2022/08/01 02:57:09;;;;;;;49.22;46.55;;;;;;;-143.39;100.00;64013.03;5049692;28;20409;-79
2022/08/01 02:59:40;;;;;;;45.72;43.22;;;;;;;-143.39;100.00;64013.03;5045212;28;20996;-79
2022/08/01 03:02:09;;;;;;;47.25;44.95;;;;;;;-143.39;100.00;64013.03;5042458;28;20064;-81
2022/08/01 03:04:39;;;;;;;31.00;29.13;;;;;;;-143.39;100.00;64013.03;5043522;28;20053;-81
2022/08/01 03:07:09;;;;;;;30.58;28.52;;;;;;;-143.39;100.00;64013.03;5043709;28;20049;-78
2022/08/01 03:09:40;;;;;;;29.02;27.23;;;;;;;-143.39;100.00;64013.03;5037481;28;20060;-78
2022/08/01 03:12:11;;;;;;;31.10;29.10;;;;;;;-143.39;100.00;64013.03;5047162;28;20053;-81
2022/08/01 03:14:40;;;;;;;29.00;27.20;;;;;;;-143.39;100.00;64013.03;5044738;28;20056;-78
2022/08/01 03:17:11;;;;;;;28.45;26.75;;;;;;;-143.39;100.00;64013.03;5042750;28;20138;-81
2022/08/01 03:19:40;;;;;;;25.10;23.40;;;;;;;-143.39;100.00;64013.03;5044897;28;20056;-82
2022/08/01 03:22:12;;;;;;;24.83;23.02;;;;;;;-143.39;100.00;64013.03;5047705;28;20129;-82
2022/08/01 03:24:41;;;;;;;27.05;24.73;;;;;;;-143.39;100.00;64013.03;5044451;28;20055;-81
2022/08/01 03:27:09;;;;;;;24.27;22.23;;;;;;;-143.39;100.00;64013.03;5050956;28;20124;-80
2022/08/01 03:29:37;;;;;;;24.23;22.63;;;;;;;-143.39;100.00;64013.03;5049000;28;20064;-81
2022/08/01 03:32:06;;;;;;;25.55;23.75;;;;;;;-143.39;100.00;64013.03;5045016;28;20468;-81
2022/08/01 03:34:33;;;;;;;24.73;23.02;;;;;;;-143.39;100.00;64013.03;5049228;28;20056;-82
2022/08/01 03:37:06;;;;;;;26.80;25.05;;;;;;;-143.39;100.00;64013.03;5048945;28;20489;-82
2022/08/01 03:39:46;;;;;;;29.63;27.67;;;;;;;-143.39;100.00;64013.03;5045401;28;20053;-82
2022/08/01 03:42:16;;;;;;;30.45;28.25;;;;;;;-143.39;100.00;64013.03;5051680;28;20496;-82
2022/08/01 03:44:53;;;;;;;27.33;25.60;;;;;;;-143.39;100.00;64013.03;5051816;28;20053;-82
2022/08/01 03:47:25;;;;;;;26.65;24.73;;;;;;;-143.39;100.00;64013.03;5042746;28;20128;-78
2022/08/01 03:49:55;;;;;;;28.42;26.50;;;;;;;-143.39;100.00;64013.03;5050421;28;20037;-78
2022/08/01 03:52:22;;;;;;;27.58;25.67;;;;;;;-143.39;100.00;64013.03;5057019;28;20510;-82
2022/08/01 03:54:55;;;;;;;28.75;27.05;;;;;;;-143.39;100.00;64013.03;5050108;28;20041;-78
2022/08/01 03:57:22;;;;;;;;;;;;;;;-143.39;100.00;64013.03;5048237;28;20072;-78
2022/08/01 03:59:50;;;;;;;31.20;29.27;;;;;;;-143.39;100.00;64013.03;5049658;28;20353;-78
2022/08/01 04:02:18;;;;;;;28.50;26.23;;;;;;;-143.39;100.00;64013.03;5051236;28;20049;-81
2022/08/01 04:04:46;;;;;;;28.98;27.23;;;;;;;-143.39;100.00;64013.03;5046462;28;20553;-81
2022/08/01 04:07:23;;;;;;;26.20;24.50;;;;;;;-143.39;100.00;64013.03;5048540;28;20060;-80
2022/08/01 04:09:52;;;;;;;26.50;24.60;;;;;;;-143.39;100.00;64013.03;5046660;28;20060;-78
2022/08/01 04:12:19;;;;;;;25.10;23.50;;;;;;;-143.39;100.00;64013.03;5049759;28;20150;-79
2022/08/01 04:14:46;;;;;;;27.15;25.45;;;;;;;-143.39;100.00;64013.03;5046245;28;20103;-78
2022/08/01 04:17:13;;;;;;;28.58;26.60;;;;;;;-143.39;100.00;64013.03;5045466;28;20049;-81
2022/08/01 04:19:40;;;;;;;28.52;26.92;;;;;;;-143.39;100.00;64013.03;5049640;28;20106;-78
2022/08/01 04:22:09;;;;;;;28.65;26.95;;;;;;;-143.39;100.00;64013.03;5048603;28;20122;-78
2022/08/01 04:24:37;;;;;;;27.50;25.77;;;;;;;-143.39;100.00;64013.03;5053333;28;20045;-81
2022/08/01 04:27:10;;;;;;;25.48;23.90;;;;;;;-143.39;100.00;64013.03;5048271;28;20077;-81
2022/08/01 04:29:39;;;;;;;25.38;23.80;;;;;;;-143.39;100.00;64013.03;5044461;28;20491;-81
2022/08/01 04:32:08;;;;;;;25.27;23.67;;;;;;;-143.39;100.00;64013.03;5043360;28;20490;-81
2022/08/01 04:34:37;;;;;;;24.40;22.55;;;;;;;-143.39;100.00;64013.03;5047428;28;20041;-80
2022/08/01 04:37:05;;;;;;;24.20;22.60;;;;;;;-143.39;100.00;64013.03;5043054;28;20041;-83
2022/08/01 04:39:36;;;;;;;26.92;24.58;;;;;;;-143.39;100.00;64013.03;5045555;28;20119;-78
2022/08/01 04:42:07;;;;;;;24.77;23.17;;;;;;;-143.39;100.00;64013.03;5048775;28;20075;-81
2022/08/01 04:44:35;;;;;;;26.20;24.50;;;;;;;-143.39;100.00;64013.03;5048439;28;20041;-80
2022/08/01 04:47:03;;;;;;;26.65;25.05;;;;;;;-143.39;100.00;64013.03;5046005;28;20045;-79
2022/08/01 04:49:31;;;;;;;25.75;24.00;;;;;;;-143.39;100.00;64013.03;5048389;28;20045;-82
2022/08/01 04:51:59;;;;;;;23.80;22.10;;;;;;;-143.39;100.00;64013.03;5049495;28;20410;-79
2022/08/01 04:54:27;;;;;;;24.90;23.20;;;;;;;-143.39;100.00;64013.03;5048188;28;20493;-81
2022/08/01 04:56:59;;;;;;;24.38;22.77;;;;;;;-143.39;100.00;64013.03;5048853;28;20041;-78
2022/08/01 04:59:42;;;;;;;25.55;23.88;;;;;;;-143.39;100.00;64013.03;5048876;28;20056;-81
2022/08/01 05:02:11;;;;;;;24.75;23.15;;;;;;;-143.39;100.00;64013.03;5045037;28;20363;-78
2022/08/01 05:04:40;;;;;;;24.13;22.25;;;;;;;-143.39;100.00;64013.03;5046745;28;20052;-81
2022/08/01 05:07:07;;;;;;;24.55;22.95;;;;;;;-143.39;100.00;64013.03;5046988;28;20485;-81
2022/08/01 05:09:35;;;;;;;24.52;22.75;;;;;;;-143.39;100.00;64013.03;5050563;28;20496;-82
2022/08/01 05:12:03;;;;;;;25.02;23.02;;;;;;;-143.39;100.00;64013.03;5050905;28;20095;-82
2022/08/01 05:14:33;;;;;;;23.75;21.80;;;;;;;-143.39;100.00;64013.03;5048675;28;20053;-81
2022/08/01 05:17:00;;;;;;;23.27;21.63;;;;;;;-143.39;100.00;64013.03;5047043;28;20048;-79
2022/08/01 05:19:27;;;;;;;24.17;22.58;;;;;;;-143.39;100.00;64013.03;5034001;28;20053;-78
2022/08/01 05:21:54;;;;;;;24.65;22.95;;;;;;;-143.39;100.00;64013.03;5054221;28;20076;-81
2022/08/01 05:24:22;;;;;;;25.20;23.38;;;;;;;-143.39;100.00;64013.03;5041997;28;20049;-80
2022/08/01 05:26:49;;;;;;;24.42;22.50;;;;;;;-143.39;100.00;64013.03;5034979;28;20052;-81
2022/08/01 05:29:16;;;;;;;25.10;23.23;;;;;;;-143.39;100.00;64013.03;5046824;28;20088;-78
2022/08/01 05:31:44;;;;;;;24.10;22.50;;;;;;;-143.39;100.00;64013.03;5047025;28;20053;-78
2022/08/01 05:34:11;;;;;;;24.90;23.27;;;;;;;-143.39;100.00;64013.03;5045109;28;20045;-78
2022/08/01 05:36:38;;;;;;;24.60;22.90;;;;;;;-143.39;100.00;64013.03;5044956;28;20053;-82
2022/08/01 05:39:05;;;;;;;24.08;22.55;;;;;;;-143.39;100.00;64013.03;5039500;28;20083;-78
2022/08/01 05:41:32;;;;;;;25.77;24.27;;;;;;;-143.39;100.00;64013.03;5042108;28;20409;-79
2022/08/01 05:43:59;;;;;;;24.88;23.38;;;;;;;-143.39;100.00;64013.03;5040131;28;20065;-78
2022/08/01 05:46:26;;;;;;;25.13;23.45;;;;;;;-143.39;100.00;64013.03;5041647;28;20500;-80
2022/08/01 05:48:54;;;;;;;23.55;22.15;;;;;;;-143.39;100.00;64013.03;5041295;28;20504;-81
2022/08/01 05:51:21;;;;;;;24.55;22.85;;;;;;;-143.39;100.00;64013.03;5043220;28;20133;-80
2022/08/01 05:53:48;;;;;;;24.05;22.65;;;;;;;-143.39;100.00;64013.03;5042678;28;20044;-81
2022/08/01 05:56:15;;;;;;;30.50;23.92;;;;;;;-143.39;100.00;64013.03;5046419;28;20525;-79
2022/08/01 05:58:42;;;;;;;24.52;23.02;;;;;;;-143.39;100.00;64013.03;5042140;28;20052;-81
2022/08/01 06:01:09;;;;;;;25.17;23.38;;;;;;;-143.39;100.00;64013.03;5040059;28;20470;-81
2022/08/01 06:03:38;;;;;;;25.42;23.65;;;;;;;-143.39;100.00;64013.03;5043317;28;20486;-77
2022/08/01 06:06:06;;;;;;;25.30;23.80;;;;;;;-143.39;100.00;64013.03;5044734;28;20052;-81
2022/08/01 06:08:33;;;;;;;24.50;22.95;;;;;;;-143.39;100.00;64013.03;5042010;28;20053;-80
2022/08/01 06:11:01;;;;;;;24.48;22.83;;;;;;;-143.39;100.00;64013.03;5033043;28;20049;-78
2022/08/01 06:13:28;;;;;;;23.83;22.40;;;;;;;-143.39;100.00;64013.03;5039281;28;20195;-78
2022/08/01 06:15:55;;;;;;;24.00;22.50;;;;;;;-143.39;100.00;64013.03;5046488;28;20393;-81
2022/08/01 06:18:23;;;;;;;24.45;22.95;;;;;;;-143.39;100.00;64013.03;5043448;28;20044;-78
2022/08/01 06:20:50;;;;;;;24.63;22.90;;;;;;;-143.39;100.00;64013.03;5045464;28;20045;-80
2022/08/01 06:23:18;;;;;;;24.15;22.65;;;;;;;-143.39;100.00;64013.03;5042674;28;20041;-81
2022/08/01 06:25:45;;;;;;;25.33;23.73;;;;;;;-143.39;100.00;64013.03;5046295;28;20118;-80
2022/08/01 06:28:12;;;;;;;24.75;23.00;;;;;;;-143.39;100.00;64013.03;5038076;28;20060;-78
2022/08/01 06:30:38;;;;;;;25.25;23.50;;;;;;;-143.39;100.00;64013.03;5045397;28;20053;-81
2022/08/01 06:33:05;;;;;;;25.92;24.42;;;;;;;-143.39;100.00;64013.03;5045102;28;20041;-78
2022/08/01 06:35:32;;;;;;;27.73;25.42;;;;;;;-143.39;100.00;64013.03;5040273;28;20052;-78
2022/08/01 06:37:59;;;;;;;27.67;25.88;;;;;;;-143.39;100.00;64013.03;5044458;28;20135;-80
2022/08/01 06:40:27;;;;;;;25.65;23.92;;;;;;;-143.39;100.00;64013.03;5036924;28;20041;-77
2022/08/01 06:42:54;;;;;;;25.48;23.98;;;;;;;-143.39;100.00;64013.03;5042479;28;20053;-82
2022/08/01 06:45:22;;;;;;;25.20;23.50;;;;;;;-143.39;100.00;64013.03;5044767;28;20052;-77
2022/08/01 06:47:49;;;;;;;26.73;24.65;;;;;;;-143.39;100.00;64013.03;5043063;28;20045;-80
2022/08/01 06:50:16;;;;;;;24.83;23.23;;;;;;;-143.39;100.00;64013.03;5047365;28;20537;-81
2022/08/01 06:52:43;;;;;;;25.42;23.45;;;;;;;-143.39;100.00;64013.03;5049495;28;20505;-80
2022/08/01 06:55:10;;;;;;;25.98;24.17;;;;;;;-143.39;100.00;64013.03;5050140;28;20050;-81
2022/08/01 06:57:46;;;;;;;26.00;23.33;;;;;;;-143.39;100.00;64013.03;5052671;28;20426;-81
2022/08/01 07:00:15;;;;;;;25.33;23.73;;;;;;;-143.39;100.00;64013.03;5052702;28;20051;-81
2022/08/01 07:02:43;;;;;;;25.95;24.23;;;;;;;-143.39;100.00;64013.03;5044282;28;20057;-80
2022/08/01 07:05:10;;;;;;;26.15;24.75;;;;;;;-143.39;100.00;64013.03;5045504;28;20048;-78
2022/08/01 07:07:37;;;;;;;27.00;25.30;;;;;;;-143.39;100.00;64013.03;5045718;28;20056;-79
2022/08/01 07:10:05;;;;;;;26.83;25.23;;;;;;;-143.39;100.00;64013.03;5050879;28;20052;-81
2022/08/01 07:12:33;;;;;;;26.52;24.88;;;;;;;-143.39;100.00;64013.03;5048547;28;20052;-82
2022/08/01 07:15:01;;;;;;;26.52;24.88;;;;;;;-143.39;100.00;64013.03;5047606;28;20053;-82
2022/08/01 07:17:28;;;;;;;25.75;24.25;;;;;;;-143.39;100.00;64013.03;5045515;28;20068;-78
2022/08/01 07:19:55;;;;;;;26.80;25.08;;;;;;;-143.39;100.00;64013.03;5046265;28;20123;-79
2022/08/01 07:22:22;;;;;;;27.60;25.90;;;;;;;-143.39;100.00;64013.03;5052800;28;20049;-81
2022/08/01 07:24:49;;;;;;;27.58;25.88;;;;;;;-143.39;100.00;64013.03;5049386;28;20106;-80
2022/08/01 07:27:16;;;;;;;26.48;24.77;;;;;;;-143.39;100.00;64013.03;5050915;28;20041;-79
2022/08/01 07:29:43;;;;;;;26.63;24.88;;;;;;;-143.39;100.00;64013.03;5048768;28;20053;-82
2022/08/01 07:32:11;;;;;;;27.73;25.58;;;;;;;-143.39;100.00;64013.03;5045900;28;20041;-78
2022/08/01 07:34:38;;;;;;;26.38;24.48;;;;;;;-143.39;100.00;64013.03;5049585;28;20053;-81
2022/08/01 07:37:05;;;;;;;27.45;25.55;;;;;;;-143.39;100.00;64013.03;5045550;28;20050;-83
2022/08/01 07:39:32;;;;;;;27.63;25.60;;;;;;;-143.39;100.00;64013.03;5044155;28;20049;-81
2022/08/01 07:41:58;;;;;;;27.38;25.67;;;;;;;-143.39;100.00;64013.03;5045355;28;20394;-80
2022/08/01 07:44:25;;;;;;;27.38;25.58;;;;;;;-143.39;100.00;64013.03;5042437;28;20060;-82
2022/08/01 07:46:52;;;;;;;28.70;27.00;;;;;;;-143.39;100.00;64013.03;5050454;28;20378;-79
2022/08/01 07:49:21;;;;;;;28.27;26.38;;;;;;;-143.39;100.00;64013.03;5049784;28;20401;-81
2022/08/01 07:51:48;;;;;;;30.70;28.60;;;;;;;-143.39;100.00;64013.03;5046928;28;20048;-81
2022/08/01 07:54:15;;;;;;;27.85;26.05;;;;;;;-143.39;100.00;64013.03;5050987;28;20048;-79
2022/08/01 07:56:42;;;;;;;28.35;26.40;;;;;;;-143.39;100.00;64013.03;5045362;28;20049;-81
2022/08/01 07:59:09;;;;;;;28.02;26.02;;;;;;;-143.39;100.00;64013.03;5048723;28;20072;-79
2022/08/01 08:01:35;;;;;;;29.23;27.10;;;;;;;-143.39;100.00;64013.03;5045666;28;20060;-78
2022/08/01 08:04:03;;;;;;;29.42;27.25;;;;;;;-143.39;100.00;64013.03;5045801;28;20060;-79
2022/08/01 08:06:31;;;;;;;29.13;26.90;;;;;;;-143.39;100.00;64013.03;5048780;28;20072;-81
2022/08/01 08:08:58;;;;;;;29.13;27.23;;;;;;;-143.39;100.00;64013.03;5055451;28;20448;-78
2022/08/01 08:11:25;;;;;;;28.42;26.33;;;;;;;-143.39;100.00;64013.03;5052046;28;20052;-79
2022/08/01 08:13:51;;;;;;;28.27;26.33;;;;;;;-143.39;100.00;64013.03;5046396;28;20425;-78
2022/08/01 08:16:18;;;;;;;27.73;25.92;;;;;;;-143.39;100.00;64013.03;5049150;28;20064;-78
2022/08/01 08:18:45;;;;;;;28.30;26.48;;;;;;;-143.39;100.00;64013.03;5052268;28;20045;-82
2022/08/01 08:21:12;;;;;;;27.75;25.75;;;;;;;-143.39;100.00;64013.03;5047980;28;20205;-79
2022/08/01 08:26:25;;;;;;;29.95;28.15;;;;;;;-143.39;100.00;64013.03;5047866;28;20051;-81
2022/08/01 08:28:51;;;;;;;29.90;27.75;;;;;;;-143.39;100.00;64013.03;5047840;28;20044;-78
2022/08/01 08:31:18;;;;;;;29.90;27.90;;;;;;;-143.39;100.00;64013.03;5045383;28;20048;-77
2022/08/01 08:33:45;;;;;;;29.67;27.88;;;;;;;-143.39;100.00;64013.03;5045729;28;20049;-81
2022/08/01 08:36:14;;;;;;;28.77;26.77;;;;;;;-143.39;100.00;64013.03;5049927;28;21418;-81
2022/08/01 08:38:42;;;;;;;31.67;29.23;;;;;;;-143.39;100.00;64013.03;5042305;28;20052;-78
2022/08/01 08:41:10;;;;;;;31.45;29.15;;;;;;;-143.39;100.00;64013.03;5049502;28;20048;-81
2022/08/01 08:43:37;;;;;;;31.42;29.23;;;;;;;-143.39;100.00;64013.03;5047233;28;20110;-79
2022/08/01 08:46:06;;;;;;;31.10;29.15;;;;;;;-143.39;100.00;64013.03;5049942;28;20049;-81
2022/08/01 08:48:33;;;;;;;28.92;26.95;;;;;;;-143.39;100.00;64013.03;5049893;28;20379;-80
2022/08/01 08:51:02;;;;;;;30.30;28.33;;;;;;;-143.39;100.00;64013.03;5048776;28;20402;-81
2022/08/01 08:53:32;;;;;;;31.10;29.10;;;;;;;-143.39;100.00;64013.03;5043738;28;20140;-81
2022/08/01 08:56:00;;;;;;;31.65;29.45;;;;;;;-143.39;100.00;64013.03;5050247;28;20071;-82
2022/08/01 08:58:28;;;;;;;28.17;26.35;;;;;;;-143.39;100.00;64013.03;5047047;28;20102;-79
2022/08/01 09:00:55;;;;;;;28.63;26.92;;;;;;;-143.39;100.00;64013.03;5049078;28;20466;-78
2022/08/01 09:03:21;;;;;;;31.98;29.95;;;;;;;-143.39;100.00;64013.03;5047871;28;20048;-77
2022/08/01 09:05:48;;;;;;;43.38;40.85;;;;;;;-143.39;100.00;64013.03;5046612;28;20115;-81
2022/08/01 09:08:15;;;;;;;44.47;41.88;;;;;;;-143.39;100.00;64013.03;5051074;28;20543;-80
2022/08/01 09:10:42;;;;;;;42.20;39.15;;;;;;;-143.39;100.00;64013.03;5045051;28;20044;-81
2022/08/01 09:13:12;;;;;;;41.80;38.65;;;;;;;-143.39;100.00;64013.03;5047412;28;20051;-79
2022/08/01 09:15:41;;;;;;;37.28;34.75;;;;;;;-143.39;100.00;64013.03;5042499;28;20041;-78
2022/08/01 09:18:08;;;;;;;37.30;34.88;;;;;;;-143.39;100.00;64013.03;5049023;28;20060;-82
2022/08/01 09:20:35;;;;;;;41.13;38.42;;;;;;;-143.39;100.00;64013.03;5049859;28;20066;-78
2022/08/01 09:23:03;;;;;;;42.58;39.97;;;;;;;-143.39;100.00;64013.03;5045767;28;20045;-78
2022/08/01 09:25:33;;;;;;;36.63;34.38;;;;;;;-143.39;100.00;64013.03;5044991;28;20126;-82
2022/08/01 09:28:05;;;;;;;32.40;30.20;;;;;;;-143.39;100.00;64013.03;5049518;28;20059;-81
2022/08/01 09:30:39;;;;;;;30.63;28.60;;;;;;;-143.39;100.00;64013.03;5043067;28;20045;-79
2022/08/01 09:33:06;;;;;;;28.83;26.83;;;;;;;-143.39;100.00;64013.03;5044656;28;20071;-81
2022/08/01 09:35:36;;;;;;;27.67;25.85;;;;;;;-143.39;100.00;64013.03;5047134;28;20389;-78
2022/08/01 09:38:16;;;;;;;30.00;27.77;;;;;;;-143.39;100.00;64013.03;5044673;28;20052;-81
2022/08/01 09:40:51;;;;;;;30.92;29.13;;;;;;;-143.39;100.00;64013.03;5043258;28;20115;-78
2022/08/01 09:43:19;;;;;;;27.85;26.02;;;;;;;-143.39;100.00;64013.03;5040055;28;20124;-80
2022/08/01 09:45:48;;;;;;;26.95;25.25;;;;;;;-143.39;100.00;64013.03;5044279;28;20045;-78
2022/08/01 09:48:15;;;;;;;27.10;25.40;;;;;;;-143.39;100.00;64013.03;5042048;28;20053;-79
2022/08/01 09:50:44;;;;;;;27.08;25.38;;;;;;;-143.39;100.00;64013.03;5046075;28;20511;-87
2022/08/01 09:53:12;;;;;;;25.92;24.33;;;;;;;-143.39;100.00;64013.03;5046560;28;20469;-81
2022/08/01 09:55:39;;;;;;;26.02;24.30;;;;;;;-143.39;100.00;64013.03;5046938;28;20045;-79
2022/08/01 09:58:07;;;;;;;26.48;24.58;;;;;;;-143.39;100.00;64013.03;5045179;28;20204;-78
2022/08/01 10:00:34;;;;;;;26.23;24.63;;;;;;;-143.39;100.00;64013.03;5047911;28;20044;-79
2022/08/01 10:03:20;;;;;;;27.00;25.40;;;;;;;-143.39;100.00;64013.03;5046962;28;20066;-80
2022/08/01 10:05:47;;;;;;;26.45;24.75;;;;;;;-143.39;100.00;64013.03;5045720;28;20045;-85
2022/08/01 10:08:15;;;;;;;31.08;29.27;;;;;;;-143.39;100.00;64013.03;5048770;28;20115;-79
2022/08/01 10:10:42;;;;;;;27.00;25.20;;;;;;;-143.39;100.00;64013.03;5044574;28;20056;-81
2022/08/01 10:13:10;;;;;;;26.83;24.88;;;;;;;-143.39;100.00;64013.03;5044414;28;20057;-84
2022/08/01 10:15:37;;;;;;;27.10;25.13;;;;;;;-143.39;100.00;64013.03;5043073;28;20037;-81
2022/08/01 10:18:08;;;;;;;30.58;28.65;;;;;;;-143.39;100.00;64013.03;5043319;28;20140;-81
2022/08/01 10:20:35;;;;;;;29.55;27.65;;;;;;;-143.39;100.00;64013.03;5041930;28;20053;-78
2022/08/01 10:23:03;;;;;;;28.77;27.08;;;;;;;-143.39;100.00;64013.03;5049075;28;20056;-81
2022/08/01 10:25:35;;;;;;;28.33;26.50;;;;;;;-143.39;100.00;64013.03;5048100;28;20134;-81
2022/08/01 10:28:12;;;;;;;31.15;29.35;;;;;;;-143.39;100.00;64013.03;5050639;28;20085;-81
2022/08/01 10:30:42;;;;;;;33.58;31.40;;;;;;;-143.39;100.00;64013.03;5051972;28;20049;-84
2022/08/01 10:33:11;;;;;;;30.50;28.77;;;;;;;-143.39;100.00;64013.03;5049788;28;20045;-78
2022/08/01 10:35:39;;;;;;;32.40;30.50;;;;;;;-143.39;100.00;64013.03;5043376;28;20041;-82
2022/08/01 10:38:06;;;;;;;38.75;36.65;;;;;;;-143.39;100.00;64013.03;5050211;28;20049;-78
2022/08/01 10:40:34;;;;;;;33.33;31.25;;;;;;;-143.39;100.00;64013.03;5048314;28;20127;-80
2022/08/01 10:43:02;;;;;;;30.50;28.52;;;;;;;-143.39;100.00;64013.03;5047925;28;20115;-82
2022/08/01 10:45:30;;;;;;;32.25;30.15;;;;;;;-143.39;100.00;64013.03;5052081;28;20083;-81
2022/08/01 10:48:05;;;;;;;28.02;26.17;;;;;;;-143.39;100.00;64013.03;5048540;28;20052;-82
2022/08/01 10:50:46;;;;;;;31.40;29.42;;;;;;;-143.39;100.00;64013.03;5050836;28;20132;-78
2022/08/01 10:53:16;;;;;;;31.08;29.17;;;;;;;-143.39;100.00;64013.03;5046322;28;20490;-82
2022/08/01 10:55:51;;;;;;;28.48;26.45;;;;;;;-143.39;100.00;64013.03;5054893;28;20122;-78
2022/08/01 10:58:25;;;;;;;25.98;24.10;;;;;;;-143.39;100.00;64013.03;5044981;28;20044;-80
2022/08/01 11:01:23;;;;;;;24.73;23.02;;;;;;;-143.39;100.00;64013.03;5046813;28;20037;-82
2022/08/01 11:04:12;;;;;;;25.55;23.55;;;;;;;-143.39;100.00;64013.03;5048311;28;20040;-82
2022/08/01 11:06:50;;;;;;;26.25;24.27;;;;;;;-143.39;100.00;64013.03;5049106;28;20048;-80
2022/08/01 11:09:28;;;;;;;24.77;23.17;;;;;;;-143.39;100.00;64013.03;5048687;28;20466;-78
2022/08/01 11:12:00;;;;;;;26.30;24.50;;;;;;;-143.39;100.00;64013.03;5050411;28;20375;-78